Time;durP1;ratioP1;P1;durP2;ratioP2;P2;SDS_P1;SDS_P2;PMS_P1;PMS_P2;Temp;Humidity;BMP_temperature;BMP_pressure;BME280_temperature;BME280_humidity;BME280_pressure;Samples;Min_cycle;Max_cycle;Signal;HPM_P1;HPM_P2
2021/08/28 00:02:07;;;;;;;;;;;;;;;-142.75;86.94;77237.66;4969568;28;19922;-82
2021/08/28 00:04:34;;;;;;;;;;;;;;;-142.75;86.95;77243.56;5061242;22;20049;-80
2021/08/28 00:06:59;;;;;;;;;;;;;;;-142.75;86.87;77255.38;4971952;28;20403;-78
2021/08/28 00:09:24;;;;;;;;;;;;;;;-142.75;86.89;77257.34;5042683;28;19914;-79
2021/08/28 00:11:49;;;;;;;;;;;;;;;-142.75;87.10;77257.34;4959979;28;20009;-79
2021/08/28 00:14:15;;;;;;;;;;;;;;;-142.75;87.28;77263.25;4999513;28;20371;-79
2021/08/28 00:16:40;;;;;;;;;;;;;;;-142.75;87.29;77263.25;5048378;28;19914;-78
2021/08/28 00:19:05;;;;;;;;;;;;;;;-142.75;87.20;77263.25;4976151;28;19914;-79
2021/08/28 00:21:30;;;;;;;;;;;;;;;-142.75;87.48;77273.09;4975045;28;19918;-80
2021/08/28 00:23:55;;;;;;;;;;;;;;;-142.75;87.56;77282.94;4976576;28;19918;-80
2021/08/28 00:26:20;;;;;;;;;;;;;;;-142.75;87.89;77290.81;4977920;28;19940;-78
2021/08/28 00:28:46;;;;;;;;;;;;;;;-142.75;88.23;77298.69;5060406;28;20005;-81
2021/08/28 00:31:11;;;;;;;;;;;;;;;-142.75;88.63;77302.63;4975354;28;20371;-78
2021/08/28 00:33:36;;;;;;;;;;;;;;;-142.75;88.84;77292.78;4976044;28;19925;-77
2021/08/28 00:36:01;;;;;;;;;;;;;;;-142.75;89.06;77294.75;5079286;28;20307;-79
2021/08/28 00:38:26;;;;;;;;;;;;;;;-142.75;89.11;77296.72;4993754;28;19940;-80
2021/08/28 00:40:52;;;;;;;;;;;;;;;-142.75;89.24;77294.75;5076664;28;19926;-79
2021/08/28 00:43:17;;;;;;;;;;;;;;;-142.75;89.21;77294.75;4974334;28;19924;-80
2021/08/28 00:45:43;;;;;;;;;;;;;;;-142.75;89.30;77308.53;4984701;28;19920;-79
2021/08/28 00:48:12;;;;;;;;;;;;;;;-142.75;89.43;77306.56;4981188;28;19925;-79
2021/08/28 00:50:39;;;;;;;;;;;;;;;-142.75;89.71;77310.50;4974854;28;19925;-79
2021/08/28 00:53:08;;;;;;;;;;;;;;;-142.75;89.87;77312.47;5042742;28;19914;-80
2021/08/28 00:55:36;;;;;;;;;;;;;;;-142.75;90.05;77314.44;4981294;28;19941;-80
2021/08/28 00:58:02;;;;;;;;;;;;;;;-142.75;90.52;77312.47;4986572;28;19967;-79
2021/08/28 01:00:27;;;;;;;;;;;;;;;-142.75;90.55;77310.50;4974138;28;20349;-79
2021/08/28 01:02:53;;;;;;;;;;;;;;;-142.75;90.83;77306.56;4988328;28;19914;-78
2021/08/28 01:05:21;;;;;;;;;;;;;;;-142.75;90.95;77302.63;4988406;28;19914;-79
2021/08/28 01:07:50;;;;;;;;;;;;;;;-142.75;91.00;77296.72;4975327;28;19914;-79
2021/08/28 01:10:18;;;;;;;;;;;;;;;-142.75;91.16;77290.81;4975979;28;20445;-81
2021/08/28 01:12:45;;;;;;;;;;;;;;;-142.75;91.18;77290.81;4982207;28;20023;-80
2021/08/28 01:15:12;;;;;;;;;;;;;;;-142.75;91.31;77284.91;4993553;28;19929;-79
2021/08/28 01:17:39;;;;;;;;;;;;;;;-142.75;91.26;77275.06;5069752;28;19924;-80
2021/08/28 01:20:13;;;;;;;;;;;;;;;-142.75;91.21;77275.06;5062501;28;19997;-79
2021/08/28 01:22:39;;;;;;;;;;;;;;;-142.75;91.07;77267.19;4984943;28;19913;-80
2021/08/28 01:25:05;;;;;;;;;;;;;;;-142.75;90.90;77261.28;4994761;28;19914;-80
2021/08/28 01:27:40;;;;;;;;;;;;;;;-142.75;90.78;77253.41;4993165;28;20413;-81
2021/08/28 01:30:05;;;;;;;;;;;;;;;-142.75;90.68;77247.50;4990420;28;20001;-79
2021/08/28 01:32:31;;;;;;;;;;;;;;;-142.75;90.48;77243.56;4994628;28;20365;-80
2021/08/28 01:34:57;;;;;;;;;;;;;;;-142.75;90.21;77241.59;4978656;28;19971;-80
2021/08/28 01:37:23;;;;;;;;;;;;;;;-142.75;90.06;77233.72;5063153;28;19973;-81
2021/08/28 01:39:48;;;;;;;;;;;;;;;-142.75;89.99;77237.66;5060697;28;20352;-78
2021/08/28 01:42:14;;;;;;;;;;;;;;;-142.75;89.87;77225.84;4975128;28;20008;-78
2021/08/28 01:44:43;;;;;;;;;;;;;;;-142.75;89.77;77227.81;4979839;28;19914;-80
2021/08/28 01:47:08;;;;;;;;;;;;;;;-142.75;89.59;77223.88;4992963;28;19918;-80
2021/08/28 01:49:34;;;;;;;;;;;;;;;-142.75;89.62;77223.88;5061558;28;19914;-79
2021/08/28 01:51:59;;;;;;;;;;;;;;;-142.75;89.33;77221.91;5061907;28;19945;-79
2021/08/28 01:54:25;;;;;;;;;;;;;;;-142.75;89.25;77217.97;5061114;28;20348;-79
2021/08/28 01:56:51;;;;;;;;;;;;;;;-142.75;89.26;77219.94;4990973;28;19958;-79
2021/08/28 01:59:16;;;;;;;;;;;;;;;-142.75;89.36;77216.00;4996733;28;19922;-78
2021/08/28 02:01:41;;;;;;;;;;;;;;;-142.75;89.35;77219.94;4973859;28;19925;-79
2021/08/28 02:04:06;;;;;;;;;;;;;;;-142.75;89.18;77217.97;4974452;28;20399;-79
2021/08/28 02:06:38;;;;;;;;;;;;;;;-142.75;89.10;77216.00;4973987;28;19932;-79
2021/08/28 02:09:16;;;;;;;;;;;;;;;-142.75;89.01;77217.97;5043537;28;19913;-79
2021/08/28 02:12:01;;;;;;;;;;;;;;;-142.75;89.08;77216.00;4974615;28;19996;-80
2021/08/28 02:14:47;;;;;;;;;;;;;;;-142.75;89.38;77223.88;5042568;28;19913;-79
2021/08/28 02:17:12;;;;;;;;;;;;;;;-142.75;89.41;77217.97;4973072;28;20340;-78
2021/08/28 02:19:39;;;;;;;;;;;;;;;-142.75;89.63;77221.91;4975012;28;19968;-80
2021/08/28 02:22:16;;;;;;;;;;;;;;;-142.75;89.80;77227.81;4974202;28;19921;-80
2021/08/28 02:24:44;;;;;;;;;;;;;;;-142.75;90.03;77229.78;4973921;28;19940;-79
2021/08/28 02:27:11;;;;;;;;;;;;;;;-142.75;90.18;77223.88;5051785;28;20378;-79
2021/08/28 02:29:40;;;;;;;;;;;;;;;-142.75;90.07;77231.75;4992831;28;19917;-80
2021/08/28 02:32:07;;;;;;;;;;;;;;;-142.75;90.07;77237.66;4992524;28;19920;-79
2021/08/28 02:34:33;;;;;;;;;;;;;;;-142.75;90.17;77239.63;5074793;28;20302;-79
2021/08/28 02:36:59;;;;;;;;;;;;;;;-142.75;90.37;77245.53;4992794;28;19936;-80
2021/08/28 02:39:26;;;;;;;;;;;;;;;-142.75;90.50;77245.53;4985184;28;20298;-79
2021/08/28 02:41:52;;;;;;;;;;;;;;;-142.75;90.38;77243.56;4973889;28;19926;-81
2021/08/28 02:44:18;;;;;;;;;;;;;;;-142.75;90.48;77245.53;4988824;28;19925;-79
2021/08/28 02:46:45;;;;;;;;;;;;;;;-142.75;90.53;77253.41;5068955;28;20298;-79
2021/08/28 02:49:11;;;;;;;;;;;;;;;-142.75;90.81;77259.31;4974584;28;19917;-79
2021/08/28 02:51:37;;;;;;;;;;;;;;;-142.75;90.82;77257.34;5040639;28;19913;-79
2021/08/28 02:54:02;;;;;;;;;;;;;;;-142.75;91.16;77259.31;4973854;28;19973;-78
2021/08/28 02:56:30;;;;;;;;;;;;;;;-142.75;91.38;77247.50;5044098;28;19916;-79
2021/08/28 02:58:55;;;;;;;;;;;;;;;-142.75;91.54;77247.50;4973175;28;19922;-78
2021/08/28 03:01:20;;;;;;;;;;;;;;;-142.75;91.66;77233.72;4981120;28;19925;-79
2021/08/28 03:03:46;;;;;;;;;;;;;;;-142.75;91.49;77227.81;4992695;28;19920;-78
2021/08/28 03:06:11;;;;;;;;;;;;;;;-142.75;91.51;77223.88;5074977;28;19914;-79
2021/08/28 03:08:39;;;;;;;;;;;;;;;-142.75;91.50;77229.78;4972315;28;20030;-81
2021/08/28 03:11:05;;;;;;;;;;;;;;;-142.75;91.54;77216.00;5041114;28;19922;-80
2021/08/28 03:13:30;;;;;;;;;;;;;;;-142.75;91.36;77217.97;4983458;28;20390;-81
2021/08/28 03:15:56;;;;;;;;;;;;;;;-142.75;91.22;77206.16;4991692;28;19914;-80
2021/08/28 03:18:22;;;;;;;;;;;;;;;-142.75;90.92;77210.09;5041877;28;19930;-78
2021/08/28 03:20:49;;;;;;;;;;;;;;;-142.75;90.75;77206.16;4972470;28;19922;-78
2021/08/28 03:23:16;;;;;;;;;;;;;;;-142.75;90.62;77216.00;5058627;28;19929;-78
2021/08/28 03:25:42;;;;;;;;;;;;;;;-142.75;90.58;77212.06;5058610;28;19914;-79
2021/08/28 03:28:07;;;;;;;;;;;;;;;-142.75;90.66;77214.03;5043147;28;19955;-79
2021/08/28 03:30:33;;;;;;;;;;;;;;;-142.75;90.50;77217.97;4972445;28;19914;-78
2021/08/28 03:32:58;;;;;;;;;;;;;;;-142.75;90.64;77227.81;4978957;28;20375;-79
2021/08/28 03:35:24;;;;;;;;;;;;;;;-142.75;90.57;77235.69;5077050;28;20367;-80
2021/08/28 03:37:50;;;;;;;;;;;;;;;-142.75;90.59;77239.63;5043953;28;19921;-79
2021/08/28 03:40:16;;;;;;;;;;;;;;;-142.75;90.62;77247.50;4974070;28;19914;-79
2021/08/28 03:42:42;;;;;;;;;;;;;;;-142.75;90.91;77253.41;4977095;28;20341;-79
2021/08/28 03:45:08;;;;;;;;;;;;;;;-142.75;90.83;77253.41;4977667;28;19925;-79
2021/08/28 03:47:35;;;;;;;;;;;;;;;-142.75;90.92;77257.34;5043738;28;20272;-79
2021/08/28 03:50:00;;;;;;;;;;;;;;;-142.75;90.95;77255.38;4976453;28;19914;-78
2021/08/28 03:52:25;;;;;;;;;;;;;;;-142.75;91.16;77255.38;4982899;28;19914;-78
2021/08/28 03:54:51;;;;;;;;;;;;;;;-142.75;90.99;77243.56;5064109;28;19913;-78
2021/08/28 03:57:16;;;;;;;;;;;;;;;-142.75;90.91;77233.72;5049733;28;19914;-78
2021/08/28 03:59:41;;;;;;;;;;;;;;;-142.75;90.64;77229.78;5044256;28;19921;-79
2021/08/28 04:02:06;;;;;;;;;;;;;;;-142.75;90.78;77235.69;4980609;28;19926;-78
2021/08/28 04:04:31;;;;;;;;;;;;;;;-142.75;90.91;77239.63;4980538;28;20303;-79
2021/08/28 04:06:57;;;;;;;;;;;;;;;-142.75;91.13;77247.50;4979675;28;19918;-78
2021/08/28 04:09:22;;;;;;;;;;;;;;;-142.75;91.16;77235.69;5049147;28;19929;-79
2021/08/28 04:11:47;;;;;;;;;;;;;;;-142.75;90.92;77225.84;5046369;28;20043;-79
2021/08/28 04:14:12;;;;;;;;;;;;;;;-142.75;90.78;77223.88;5050951;28;19913;-80
2021/08/28 04:16:37;;;;;;;;;;;;;;;-142.75;90.71;77223.88;5047048;28;19921;-79
2021/08/28 04:19:02;;;;;;;;;;;;;;;-142.75;90.57;77219.94;5047776;28;19914;-80
2021/08/28 04:21:28;;;;;;;;;;;;;;;-142.75;90.62;77217.97;5053420;28;19918;-79
2021/08/28 04:23:53;;;;;;;;;;;;;;;-142.75;90.65;77219.94;5048441;28;21732;-80
2021/08/28 04:26:18;;;;;;;;;;;;;;;-142.75;90.52;77216.00;4998276;28;20371;-80
2021/08/28 04:28:43;;;;;;;;;;;;;;;-142.75;90.48;77219.94;4997938;28;19920;-79
2021/08/28 04:31:08;;;;;;;;;;;;;;;-142.75;90.71;77223.88;4979305;28;19914;-78
2021/08/28 04:33:34;;;;;;;;;;;;;;;-142.75;90.79;77219.94;4982081;28;19921;-79
2021/08/28 04:35:59;;;;;;;;;;;;;;;-142.75;90.83;77223.88;5052565;28;20528;-80
2021/08/28 04:38:24;;;;;;;;;;;;;;;-142.75;91.16;77216.00;4981409;28;19914;-80
2021/08/28 04:40:50;;;;;;;;;;;;;;;-142.75;91.02;77214.03;5047432;28;19925;-79
2021/08/28 04:43:15;;;;;;;;;;;;;;;-142.75;90.92;77212.06;5054888;28;19967;-80
2021/08/28 04:45:41;;;;;;;;;;;;;;;-142.75;90.74;77216.00;5068076;28;20002;-80
2021/08/28 04:48:06;;;;;;;;;;;;;;;-142.75;90.80;77217.97;5056225;28;19921;-79
2021/08/28 04:50:31;;;;;;;;;;;;;;;-142.75;90.94;77217.97;5053576;28;19913;-79
2021/08/28 04:52:56;;;;;;;;;;;;;;;-142.75;90.99;77225.84;4998286;28;20000;-79
2021/08/28 04:55:21;;;;;;;;;;;;;;;-142.75;90.95;77221.91;4997878;28;19914;-79
2021/08/28 04:57:47;;;;;;;;;;;;;;;-142.75;91.09;77223.88;5084550;28;19920;-78
2021/08/28 05:00:12;;;;;;;;;;;;;;;-142.75;91.21;77223.88;4995671;28;19921;-78
2021/08/28 05:02:37;;;;;;;;;;;;;;;-142.75;91.45;77225.84;5082967;28;19913;-79
2021/08/28 05:05:03;;;;;;;;;;;;;;;-142.75;91.66;77219.94;4998465;28;19949;-79
2021/08/28 05:07:29;;;;;;;;;;;;;;;-142.75;91.90;77217.97;4987036;28;19995;-79
2021/08/28 05:09:54;;;;;;;;;;;;;;;-142.75;91.71;77214.03;4996904;28;19914;-78
2021/08/28 05:12:19;;;;;;;;;;;;;;;-142.75;91.80;77208.13;5077065;28;19913;-79
2021/08/28 05:14:45;;;;;;;;;;;;;;;-142.75;91.76;77212.06;4981767;28;19968;-79
2021/08/28 05:17:10;;;;;;;;;;;;;;;-142.75;91.72;77210.09;5045667;28;19914;-79
2021/08/28 05:19:35;;;;;;;;;;;;;;;-142.75;91.31;77196.31;4978167;28;19914;-79
2021/08/28 05:22:00;;;;;;;;;;;;;;;-142.75;90.95;77192.38;5047689;28;19924;-79
2021/08/28 05:24:25;;;;;;;;;;;;;;;-142.75;90.68;77186.47;5045670;28;20000;-80
2021/08/28 05:26:50;;;;;;;;;;;;;;;-142.75;90.56;77190.41;4976856;28;20008;-79
2021/08/28 05:29:16;;;;;;;;;;;;;;;-142.75;90.27;77180.56;4979360;28;19914;-79
2021/08/28 05:31:41;;;;;;;;;;;;;;;-142.75;90.27;77184.50;4981690;28;19979;-78
2021/08/28 05:34:06;;;;;;;;;;;;;;;-142.75;90.23;77188.44;5050219;28;19913;-79
2021/08/28 05:36:31;;;;;;;;;;;;;;;-142.75;90.56;77194.34;5056027;28;19921;-78
2021/08/28 05:38:56;;;;;;;;;;;;;;;-142.75;90.83;77200.25;5081136;28;20427;-79
2021/08/28 05:41:22;;;;;;;;;;;;;;;-142.75;90.80;77204.19;5041542;28;20395;-79
2021/08/28 05:43:47;;;;;;;;;;;;;;;-142.75;91.15;77204.19;4993296;28;19918;-79
2021/08/28 05:46:12;;;;;;;;;;;;;;;-142.75;90.79;77192.38;5075067;28;19937;-80
2021/08/28 05:48:38;;;;;;;;;;;;;;;-142.75;90.58;77180.56;5060358;28;19921;-79
2021/08/28 05:51:03;;;;;;;;;;;;;;;-142.75;90.48;77174.66;4994934;28;19914;-79
2021/08/28 05:53:28;;;;;;;;;;;;;;;-142.75;90.44;77180.56;4995318;28;19921;-78
2021/08/28 05:55:53;;;;;;;;;;;;;;;-142.75;90.24;77176.63;4995541;28;19914;-79
2021/08/28 05:58:18;;;;;;;;;;;;;;;-142.75;90.04;77166.78;4995616;28;19913;-78
2021/08/28 06:00:44;;;;;;;;;;;;;;;-142.75;89.78;77164.81;5054313;28;19918;-78
2021/08/28 06:03:09;;;;;;;;;;;;;;;-142.75;89.49;77153.00;5056010;28;19920;-78
2021/08/28 06:05:34;;;;;;;;;;;;;;;-142.75;89.42;77145.13;5051256;22;19922;-81
2021/08/28 06:07:59;;;;;;;;;;;;;;;-142.75;89.70;77141.19;5007947;28;19925;-80
2021/08/28 06:10:24;;;;;;;;;;;;;;;-142.75;89.05;77101.81;5014661;28;19921;-81
2021/08/28 06:12:49;;;;;;;;;;;;;;;-142.75;87.61;77076.22;5004052;28;19914;-80
2021/08/28 06:15:15;;;;;;;;;;;;;;;-142.75;86.79;77046.69;5002334;28;19921;-81
2021/08/28 06:17:40;;;;;;;;;;;;;;;-142.75;85.86;76985.66;4992787;28;19935;-80
2021/08/28 06:20:05;;;;;;;;;;;;;;;-142.75;83.98;76906.91;5003556;28;20016;-81
2021/08/28 06:22:31;;;;;;;;;;;;;;;-142.75;80.70;76820.28;4999591;28;19992;-82
2021/08/28 06:24:56;;;;;;;;;;;;;;;-142.75;77.11;76735.66;5007791;28;20012;-81
2021/08/28 06:27:21;;;;;;;;;;;;;;;-142.75;72.63;76664.78;4997334;28;19920;-80
2021/08/28 06:29:46;;;;;;;;;;;;;;;-142.75;70.07;76696.28;4993841;28;20383;-81
2021/08/28 06:32:11;;;;;;;;;;;;;;;-142.75;70.05;76739.59;5004788;28;20000;-81
2021/08/28 06:34:37;;;;;;;;;;;;;;;-142.75;71.59;76806.50;4996609;28;19913;-79
2021/08/28 06:37:02;;;;;;;;;;;;;;;-142.75;74.44;76751.41;5003661;28;19913;-80
2021/08/28 06:39:27;;;;;;;;;;;;;;;-142.75;73.22;76666.75;4988659;28;19914;-80
2021/08/28 06:41:52;;;;;;;;;;;;;;;-142.75;68.96;76582.09;4997395;28;19972;-79
2021/08/28 06:44:17;;;;;;;;;;;;;;;-142.75;66.10;76538.78;5000657;28;19913;-79
2021/08/28 06:46:43;;;;;;;;;;;;;;;-142.75;64.97;76485.66;5006439;28;19923;-79
2021/08/28 06:49:08;;;;;;;;;;;;;;;-142.75;62.67;76469.91;4997277;28;19921;-80
2021/08/28 06:51:33;;;;;;;;;;;;;;;-142.75;63.01;76430.53;5008808;28;19918;-79
2021/08/28 06:53:58;;;;;;;;;;;;;;;-142.75;61.56;76363.59;4989943;28;19976;-79
2021/08/28 06:56:23;;;;;;;;;;;;;;;-142.75;59.41;76290.78;4990253;28;20371;-80
2021/08/28 06:58:49;;;;;;;;;;;;;;;-142.75;56.60;76267.16;4989620;28;19924;-80
2021/08/28 07:01:14;;;;;;;;;;;;;;;-142.75;56.54;76273.06;4988935;28;20294;-78
2021/08/28 07:03:39;;;;;;;;;;;;;;;-142.75;56.20;76338.03;5003116;28;19921;-78
2021/08/28 07:06:04;;;;;;;;;;;;;;;-142.75;57.36;76408.88;5016347;28;20370;-80
2021/08/28 07:08:29;;;;;;;;;;;;;;;-142.75;60.05;76493.53;5003404;28;19943;-78
2021/08/28 07:10:55;;;;;;;;;;;;;;;-142.75;60.84;76517.16;5003740;28;19949;-78
2021/08/28 07:13:21;;;;;;;;;;;;;;;-142.75;62.40;76556.50;5016313;28;19920;-79
2021/08/28 07:15:46;;;;;;;;;;;;;;;-142.75;62.24;76534.84;5007740;28;19965;-79
2021/08/28 07:18:12;;;;;;;;;;;;;;;-142.75;63.71;76458.09;4997015;28;20000;-81
2021/08/28 07:20:37;;;;;;;;;;;;;;;-142.75;61.19;76367.53;4987768;28;20375;-78
2021/08/28 07:23:03;;;;;;;;;;;;;;;-142.75;59.04;76306.53;4987867;28;19914;-78
2021/08/28 07:25:28;;;;;;;;;;;;;;;-142.75;56.29;76212.03;4989385;28;19913;-78
2021/08/28 07:27:53;;;;;;;;;;;;;;;-142.75;54.73;76109.69;4991520;28;20413;-79
2021/08/28 07:30:19;;;;;;;;;;;;;;;-142.75;51.46;75958.16;4987909;28;19914;-80
2021/08/28 07:32:44;;;;;;;;;;;;;;;-142.75;49.69;75938.47;4992400;28;20276;-80
2021/08/28 07:35:10;;;;;;;;;;;;;;;-142.75;49.11;75877.44;4987849;28;19914;-78
2021/08/28 07:37:35;;;;;;;;;;;;;;;-142.75;47.01;75826.28;5003204;28;19917;-79
2021/08/28 07:40:00;;;;;;;;;;;;;;;-142.75;46.63;75796.75;5000676;28;19914;-80
2021/08/28 07:42:25;;;;;;;;;;;;;;;-142.75;45.57;75712.13;4988068;28;19922;-80
2021/08/28 07:44:50;;;;;;;;;;;;;;;-142.75;43.78;75674.72;5006835;28;20402;-80
2021/08/28 07:47:16;;;;;;;;;;;;;;;-142.75;43.60;75704.25;5001851;28;20020;-79
2021/08/28 07:49:41;;;;;;;;;;;;;;;-142.75;43.88;75647.19;5023355;28;20287;-79
2021/08/28 07:52:06;;;;;;;;;;;;;;;-142.75;44.11;75659.00;4989084;28;19913;-80
2021/08/28 07:54:31;;;;;;;;;;;;;;;-142.75;42.91;75716.06;4987918;28;20256;-80
2021/08/28 07:56:59;;;;;;;;;;;;;;;-142.75;44.29;75788.88;4996907;28;19917;-79
2021/08/28 07:59:24;;;;;;;;;;;;;;;-142.75;45.60;75855.81;5005715;28;20567;-79
2021/08/28 08:01:49;;;;;;;;;;;;;;;-142.75;45.58;75867.59;5005319;28;19933;-80
2021/08/28 08:04:15;;;;;;;;;;;;;;;-142.75;46.52;75798.72;5010804;28;19964;-79
2021/08/28 08:06:40;;;;;;;;;;;;;;;-142.75;43.86;75749.53;4996391;28;19917;-80
2021/08/28 08:09:05;;;;;;;;;;;;;;;-142.75;44.80;75857.78;5012211;28;19983;-80
2021/08/28 08:11:30;;;;;;;;;;;;;;;-142.75;46.88;75977.81;4988707;28;19923;-79
2021/08/28 08:13:56;;;;;;;;;;;;;;;-142.75;47.96;76123.47;5002530;28;19920;-80
2021/08/28 08:16:21;;;;;;;;;;;;;;;-142.75;49.97;76241.56;5007563;28;20420;-78
2021/08/28 08:18:47;;;;;;;;;;;;;;;-142.75;51.87;76322.28;5023736;28;19920;-79
2021/08/28 08:21:12;;;;;;;;;;;;;;;-142.75;53.35;76381.31;5006610;28;19917;-79
2021/08/28 08:23:38;;;;;;;;;;;;;;;-142.75;54.02;76408.88;5023722;28;20370;-79
2021/08/28 08:26:03;;;;;;;;;;;;;;;-142.75;55.20;76446.28;4989790;28;20533;-79
2021/08/28 08:28:28;;;;;;;;;;;;;;;-142.75;55.72;76483.69;4991321;28;19914;-77
2021/08/28 08:30:53;;;;;;;;;;;;;;;-142.75;57.33;76507.31;4990358;28;20438;-79
2021/08/28 08:33:19;;;;;;;;;;;;;;;-142.75;57.24;76523.06;5007395;28;19914;-78
2021/08/28 08:35:44;;;;;;;;;;;;;;;-142.75;57.92;76540.75;5004145;28;19922;-79
2021/08/28 08:38:09;;;;;;;;;;;;;;;-142.75;58.70;76542.72;4990715;28;19921;-79
2021/08/28 08:40:34;;;;;;;;;;;;;;;-142.75;58.97;76513.22;4991652;28;19932;-80
2021/08/28 08:43:01;;;;;;;;;;;;;;;-142.75;58.43;76452.19;5007027;28;19965;-78
2021/08/28 08:45:26;;;;;;;;;;;;;;;-142.75;57.19;76369.50;4990312;28;19921;-79
2021/08/28 08:47:52;;;;;;;;;;;;;;;-142.75;56.22;76278.97;4991138;28;20343;-78
2021/08/28 08:50:18;;;;;;;;;;;;;;;-142.75;54.64;76208.09;4990211;28;19945;-79
2021/08/28 08:52:46;;;;;;;;;;;;;;;-142.75;54.63;76186.47;4991479;28;19929;-80
2021/08/28 08:55:11;;;;;;;;;;;;;;;-142.75;55.05;76243.53;5003493;28;19920;-82
2021/08/28 08:57:37;;;;;;;;;;;;;;;-142.75;56.86;76330.16;5000990;28;19914;-82
2021/08/28 09:00:02;;;;;;;;;;;;;;;-142.75;58.15;76381.31;4998857;28;19914;-80
2021/08/28 09:02:29;;;;;;;;;;;;;;;-142.75;59.57;76452.19;4989339;28;20458;-81
2021/08/28 09:04:54;;;;;;;;;;;;;;;-142.75;60.97;76483.69;4988880;28;19939;-79
2021/08/28 09:07:20;;;;;;;;;;;;;;;-142.75;61.85;76499.44;5007910;28;20501;-80
2021/08/28 09:09:45;;;;;;;;;;;;;;;-142.75;61.99;76523.06;5005774;28;19966;-80
2021/08/28 09:12:13;;;;;;;;;;;;;;;-142.75;62.44;76538.78;5010175;28;19914;-79
2021/08/28 09:14:39;;;;;;;;;;;;;;;-142.75;63.67;76556.50;5026441;28;19913;-80
2021/08/28 09:17:15;;;;;;;;;;;;;;;-142.75;63.12;76576.19;5001824;28;19922;-80
2021/08/28 09:19:40;;;;;;;;;;;;;;;-142.75;63.88;76601.78;4999747;28;19917;-82
2021/08/28 09:22:20;;;;;;;;;;;;;;;-142.75;64.27;76619.50;4998512;28;20412;-81
2021/08/28 09:24:45;;;;;;;;;;;;;;;-142.75;65.74;76635.25;4989776;28;19920;-80
2021/08/28 09:27:11;;;;;;;;;;;;;;;-142.75;65.18;76635.25;4993618;28;19921;-80
2021/08/28 09:29:41;;;;;;;;;;;;;;;-142.75;65.09;76627.38;4990601;28;19913;-80
2021/08/28 09:32:06;;;;;;;;;;;;;;;-142.75;64.43;76627.38;4994889;28;19913;-82
2021/08/28 09:34:31;;;;;;;;;;;;;;;-142.75;64.21;76625.41;5003553;28;19932;-78
2021/08/28 09:36:58;;;;;;;;;;;;;;;-142.75;63.52;76617.53;5001017;28;19939;-81
2021/08/28 09:39:43;;;;;;;;;;;;;;;-142.75;63.17;76605.72;5000419;28;20387;-87
2021/08/28 09:42:09;;;;;;;;;;;;;;;-142.75;63.02;76578.16;4998005;28;19918;-81
2021/08/28 09:44:36;;;;;;;;;;;;;;;-142.75;62.74;76550.59;5025087;28;20000;-81
2021/08/28 09:47:30;;;;;;;;;;;;;;;-142.75;62.40;76495.50;5008492;28;20437;-82
2021/08/28 09:49:56;;;;;;;;;;;;;;;-142.75;59.36;76326.22;5009224;28;19913;-80
2021/08/28 09:52:22;;;;;;;;;;;;;;;-142.75;56.74;76322.28;5001989;28;19913;-83
2021/08/28 09:54:48;;;;;;;;;;;;;;;-142.75;55.85;76363.59;5004699;28;19917;-79
2021/08/28 09:57:14;;;;;;;;;;;;;;;-142.75;56.44;76401.00;5025158;28;20049;-79
2021/08/28 09:59:39;;;;;;;;;;;;;;;-142.75;57.61;76448.25;4999803;28;20287;-79
2021/08/28 10:02:04;;;;;;;;;;;;;;;-142.75;58.33;76485.66;4990281;28;19925;-79
2021/08/28 10:04:30;;;;;;;;;;;;;;;-142.75;58.94;76503.38;4992242;28;19913;-79
2021/08/28 10:06:55;;;;;;;;;;;;;;;-142.75;59.39;76479.75;5008494;28;19929;-81
2021/08/28 10:09:20;;;;;;;;;;;;;;;-142.75;59.56;76369.50;4989055;28;19964;-79
2021/08/28 10:11:49;;;;;;;;;;;;;;;-142.75;56.70;76286.84;5003320;28;19917;-80
2021/08/28 10:14:19;;;;;;;;;;;;;;;-142.75;54.83;76275.03;5005673;28;19917;-79
2021/08/28 10:16:44;;;;;;;;;;;;;;;-142.75;54.38;76286.84;4989062;28;20016;-80
2021/08/28 10:19:14;;;;;;;;;;;;;;;-142.75;54.28;76312.44;4989622;28;19961;-80
2021/08/28 10:21:39;;;;;;;;;;;;;;;-142.75;54.52;76340.00;4986914;28;20304;-79
2021/08/28 10:24:05;;;;;;;;;;;;;;;-142.75;55.74;76385.25;4999493;28;19918;-80
2021/08/28 10:26:30;;;;;;;;;;;;;;;-142.75;56.07;76418.72;4996162;28;20318;-79
2021/08/28 10:29:02;;;;;;;;;;;;;;;-142.75;56.30;76446.28;5019490;28;19959;-79
2021/08/28 10:31:28;;;;;;;;;;;;;;;-142.75;57.09;76444.31;5009014;28;19913;-81
2021/08/28 10:33:54;;;;;;;;;;;;;;;-142.75;57.63;76397.06;4988740;28;20004;-79
2021/08/28 10:36:19;;;;;;;;;;;;;;;-142.75;55.77;76361.63;5001032;28;19959;-79
2021/08/28 10:38:45;;;;;;;;;;;;;;;-142.75;55.43;76292.75;5000653;28;19917;-79
2021/08/28 10:41:11;;;;;;;;;;;;;;;-142.75;55.59;76164.81;4988258;28;19951;-79
2021/08/28 10:43:37;;;;;;;;;;;;;;;-142.75;51.55;75973.88;4987102;28;19925;-78
2021/08/28 10:46:15;;;;;;;;;;;;;;;-142.75;47.71;75934.53;4990200;28;19922;-80
2021/08/28 10:48:50;;;;;;;;;;;;;;;-142.75;47.55;76011.28;4989535;28;20371;-81
2021/08/28 10:51:20;;;;;;;;;;;;;;;-142.75;47.73;76107.72;4986743;28;20022;-81
2021/08/28 10:53:49;;;;;;;;;;;;;;;-142.75;48.98;76212.03;4987840;28;19921;-79
2021/08/28 10:56:16;;;;;;;;;;;;;;;-142.75;50.79;76298.66;5002851;28;19920;-80
2021/08/28 10:58:41;;;;;;;;;;;;;;;-142.75;52.14;76351.81;4989392;28;19936;-80
2021/08/28 11:01:06;;;;;;;;;;;;;;;-142.75;54.11;76273.06;5003135;28;19918;-80
2021/08/28 11:03:35;;;;;;;;;;;;;;;-142.75;51.81;76135.28;4988654;28;20305;-78
2021/08/28 11:06:13;;;;;;;;;;;;;;;-142.75;49.82;76078.19;4986827;28;19913;-80
2021/08/28 11:08:44;;;;;;;;;;;;;;;-142.75;48.48;76036.88;4989206;28;19918;-80
2021/08/28 11:11:19;;;;;;;;;;;;;;;-142.75;47.62;75942.41;4995651;28;19992;-79
2021/08/28 11:13:56;;;;;;;;;;;;;;;-142.75;45.14;75838.09;5009988;28;19925;-81
2021/08/28 11:16:45;;;;;;;;;;;;;;;-142.75;44.45;75786.91;5009014;28;20433;-81
2021/08/28 11:19:30;;;;;;;;;;;;;;;-142.75;44.03;75727.88;5005986;28;19921;-81
2021/08/28 11:21:55;;;;;;;;;;;;;;;-142.75;41.84;75747.56;4992427;28;20011;-83
2021/08/28 11:24:24;;;;;;;;;;;;;;;-142.75;41.21;75861.69;5005831;28;19949;-81
2021/08/28 11:26:51;;;;;;;;;;;;;;;-142.75;42.38;75952.25;4990899;28;19913;-80
2021/08/28 11:29:20;;;;;;;;;;;;;;;-142.75;43.86;75956.19;4988439;28;19913;-82
2021/08/28 11:31:46;;;;;;;;;;;;;;;-142.75;44.20;75946.34;4995030;28;19913;-79
2021/08/28 11:34:12;;;;;;;;;;;;;;;-142.75;44.20;76005.38;5003919;28;19918;-81
2021/08/28 11:36:37;;;;;;;;;;;;;;;-142.75;45.44;76088.03;4996860;28;19914;-79
2021/08/28 11:39:02;;;;;;;;;;;;;;;-142.75;46.92;76147.09;5005432;28;19999;-80
2021/08/28 11:41:27;;;;;;;;;;;;;;;-142.75;46.64;76190.41;4990581;28;19947;-77
2021/08/28 11:43:53;;;;;;;;;;;;;;;-142.75;47.50;76208.09;4988242;28;19914;-79
2021/08/28 11:46:26;;;;;;;;;;;;;;;-142.75;47.89;76154.97;4987932;28;19921;-79
2021/08/28 11:48:52;;;;;;;;;;;;;;;-142.75;46.67;76090.00;4992908;28;19914;-81
2021/08/28 11:51:21;;;;;;;;;;;;;;;-142.75;45.94;76032.94;4988145;28;19920;-82
2021/08/28 11:53:51;;;;;;;;;;;;;;;-142.75;45.54;75993.56;4989970;28;19917;-80
2021/08/28 11:56:17;;;;;;;;;;;;;;;-142.75;45.03;76001.44;4989738;28;19964;-79
2021/08/28 11:58:50;;;;;;;;;;;;;;;-142.75;44.93;76030.97;4992709;28;20322;-80
2021/08/28 12:01:27;;;;;;;;;;;;;;;-142.75;45.13;76001.44;4989089;28;20617;-81
2021/08/28 12:03:53;;;;;;;;;;;;;;;-142.75;44.27;75975.84;5010076;28;19931;-80
2021/08/28 12:06:18;;;;;;;;;;;;;;;-142.75;44.35;75973.88;5026733;22;19956;-79
2021/08/28 12:08:43;;;;;;;;;;;;;;;-142.75;44.47;75991.59;5083666;28;19924;-79
2021/08/28 12:11:09;;;;;;;;;;;;;;;-142.75;43.87;76001.44;5013620;28;20020;-79
2021/08/28 12:13:47;;;;;;;;;;;;;;;-142.75;44.75;76019.16;5103198;28;20005;-80
2021/08/28 12:16:18;;;;;;;;;;;;;;;-142.75;45.15;76054.59;5019615;28;19979;-80
2021/08/28 12:18:43;;;;;;;;;;;;;;;-142.75;45.80;76103.78;5082365;28;19980;-80
2021/08/28 12:21:11;;;;;;;;;;;;;;;-142.75;46.47;76172.69;5004581;28;19965;-79
2021/08/28 12:23:36;;;;;;;;;;;;;;;-142.75;47.68;76251.41;5008590;28;19924;-79
2021/08/28 12:26:12;;;;;;;;;;;;;;;-142.75;48.94;76265.19;5078625;28;19921;-79